Terminal Aerodrome Forecast
Issued by NWS

Home | Current Version | Previous Version | Text Only | Print | Product List | Glossary On
Versions: 1 2 3 4 5 6 7 8 9 10 11 12 13 14 15 16 17 18 19 20 21 22 23 24 25 26 27 28 29
000
FTUS45 KPSR 032320
TAFIWA
TAF
KIWA 032320Z 0400/0424 21012G18KT P6SM FEW100 SCT250
     FM040700 20010KT P6SM VCSH BKN070 OVC250
     FM040900 12005KT P6SM -SHRA BKN040 OVC070
     FM041500 18004KT P6SM BKN070 OVC100
     FM042200 27012KT P6SM VCSH BKN070
      AMD LTD TO CLD VIS AND WIND 0403/0413=

USA.gov is the U.S. government's official web portal to all federal, state and local government web resources and services.